Zaneta, Iowa
Current Conditions -  °F | °C
As of 7:54 AM on Thursday 29 Jan 2015 (Local Time) from KALO Reporting Station
Light Rain Light Rain  
Wind Chill: 24°   Ceiling: 1300
Heat Index: 34°   Visibility: 4mi
Dew Point: 32°   Wind: 15mph
Humidity: 92%   Direction: 320°NW
Pressure: 30.03"   Gusts: 23mph
Location:  42.351°N, 92.4663°W
Report Text: KALO 291354Z AUTO 32013G20KT 4SM -RA BR SCT008 OVC013 01/00 A3003 RMK AO2 SLP179 P0000 T00110000
Loading
Personal Weather Stations






























Interactive Weather Map New forecast layout! Learn more

10-Day Weather Forecast

Advertisements
Track Severe Weather on mobile